sensor_id;sensor_type;location;lat;lon;timestamp;temperature;humidity
21459;DHT22;10891;49.350;19.386;2022-11-20T00:01:33;-1.20;99.90
21459;DHT22;10891;49.350;19.386;2022-11-20T00:04:01;-1.10;99.90
21459;DHT22;10891;49.350;19.386;2022-11-20T00:06:30;-1.00;99.90
21459;DHT22;10891;49.350;19.386;2022-11-20T00:08:58;-1.00;99.90
21459;DHT22;10891;49.350;19.386;2022-11-20T00:11:28;-1.00;99.90
21459;DHT22;10891;49.350;19.386;2022-11-20T00:13:56;-1.00;99.90
21459;DHT22;10891;49.350;19.386;2022-11-20T00:16:27;-0.90;99.90
21459;DHT22;10891;49.350;19.386;2022-11-20T00:18:55;-0.90;99.90
21459;DHT22;10891;49.350;19.386;2022-11-20T00:21:24;-0.90;99.90
21459;DHT22;10891;49.350;19.386;2022-11-20T00:23:52;-0.90;99.90
21459;DHT22;10891;49.350;19.386;2022-11-20T00:26:21;-0.80;99.90
21459;DHT22;10891;49.350;19.386;2022-11-20T00:28:50;-0.80;99.90
21459;DHT22;10891;49.350;19.386;2022-11-20T00:31:18;-0.90;99.90
21459;DHT22;10891;49.350;19.386;2022-11-20T00:33:45;-0.90;99.90
21459;DHT22;10891;49.350;19.386;2022-11-20T00:36:15;-0.80;99.90
21459;DHT22;10891;49.350;19.386;2022-11-20T00:38:42;-0.70;99.90
21459;DHT22;10891;49.350;19.386;2022-11-20T00:41:11;-0.70;99.90
21459;DHT22;10891;49.350;19.386;2022-11-20T00:43:38;-0.60;99.90
21459;DHT22;10891;49.350;19.386;2022-11-20T00:46:08;-0.60;99.90
21459;DHT22;10891;49.350;19.386;2022-11-20T00:48:35;-0.60;99.90
21459;DHT22;10891;49.350;19.386;2022-11-20T00:51:02;-0.60;99.90
21459;DHT22;10891;49.350;19.386;2022-11-20T00:53:30;-0.60;99.90
21459;DHT22;10891;49.350;19.386;2022-11-20T00:55:59;-0.50;99.90
21459;DHT22;10891;49.350;19.386;2022-11-20T00:58:31;-0.60;99.90
21459;DHT22;10891;49.350;19.386;2022-11-20T01:01:02;-0.60;99.90
21459;DHT22;10891;49.350;19.386;2022-11-20T01:03:31;-0.80;99.90
21459;DHT22;10891;49.350;19.386;2022-11-20T01:06:02;-0.80;99.90
21459;DHT22;10891;49.350;19.386;2022-11-20T01:08:32;-0.70;99.90
21459;DHT22;10891;49.350;19.386;2022-11-20T01:11:00;-0.70;99.90
21459;DHT22;10891;49.350;19.386;2022-11-20T01:13:27;-0.70;99.90
21459;DHT22;10891;49.350;19.386;2022-11-20T01:16:05;-0.60;99.90
21459;DHT22;10891;49.350;19.386;2022-11-20T01:18:33;-0.60;99.90
21459;DHT22;10891;49.350;19.386;2022-11-20T01:21:01;-0.60;99.90
21459;DHT22;10891;49.350;19.386;2022-11-20T01:23:32;-0.60;99.90
21459;DHT22;10891;49.350;19.386;2022-11-20T01:26:00;-0.70;99.90
21459;DHT22;10891;49.350;19.386;2022-11-20T01:28:28;-0.60;99.90
21459;DHT22;10891;49.350;19.386;2022-11-20T01:30:55;-0.70;99.90
21459;DHT22;10891;49.350;19.386;2022-11-20T01:33:22;-0.80;99.90
21459;DHT22;10891;49.350;19.386;2022-11-20T01:35:49;-1.00;99.90
21459;DHT22;10891;49.350;19.386;2022-11-20T01:38:17;-1.20;99.90
21459;DHT22;10891;49.350;19.386;2022-11-20T01:40:54;-1.10;99.90
21459;DHT22;10891;49.350;19.386;2022-11-20T01:43:22;-1.20;99.90
21459;DHT22;10891;49.350;19.386;2022-11-20T01:46:15;-1.30;99.90
21459;DHT22;10891;49.350;19.386;2022-11-20T01:48:48;-1.50;99.90
21459;DHT22;10891;49.350;19.386;2022-11-20T01:51:25;-1.50;99.90
21459;DHT22;10891;49.350;19.386;2022-11-20T01:53:54;-1.60;99.90
21459;DHT22;10891;49.350;19.386;2022-11-20T01:56:24;-1.50;99.90
21459;DHT22;10891;49.350;19.386;2022-11-20T01:58:54;-1.60;99.90
21459;DHT22;10891;49.350;19.386;2022-11-20T02:01:23;-1.70;99.90
21459;DHT22;10891;49.350;19.386;2022-11-20T02:03:50;-1.70;99.90
21459;DHT22;10891;49.350;19.386;2022-11-20T02:06:21;-1.50;99.90
21459;DHT22;10891;49.350;19.386;2022-11-20T02:08:50;-1.50;99.90
21459;DHT22;10891;49.350;19.386;2022-11-20T02:11:17;-1.30;99.90
21459;DHT22;10891;49.350;19.386;2022-11-20T02:13:46;-1.20;99.90
21459;DHT22;10891;49.350;19.386;2022-11-20T02:16:19;-1.10;99.90
21459;DHT22;10891;49.350;19.386;2022-11-20T02:18:47;-0.90;99.90
21459;DHT22;10891;49.350;19.386;2022-11-20T02:21:30;-0.90;99.90
21459;DHT22;10891;49.350;19.386;2022-11-20T02:24:09;-0.90;99.90
21459;DHT22;10891;49.350;19.386;2022-11-20T02:26:44;-0.80;99.90
21459;DHT22;10891;49.350;19.386;2022-11-20T02:29:13;-0.80;99.90
21459;DHT22;10891;49.350;19.386;2022-11-20T02:31:42;-0.80;99.90
21459;DHT22;10891;49.350;19.386;2022-11-20T02:34:10;-0.80;99.90
21459;DHT22;10891;49.350;19.386;2022-11-20T02:36:39;-0.80;99.90
21459;DHT22;10891;49.350;19.386;2022-11-20T02:39:10;-1.00;99.90
21459;DHT22;10891;49.350;19.386;2022-11-20T02:41:38;-1.00;99.90
21459;DHT22;10891;49.350;19.386;2022-11-20T02:44:05;-0.90;99.90
21459;DHT22;10891;49.350;19.386;2022-11-20T02:46:33;-1.10;99.90
21459;DHT22;10891;49.350;19.386;2022-11-20T02:49:01;-1.10;99.90
21459;DHT22;10891;49.350;19.386;2022-11-20T02:51:28;-1.20;99.90
21459;DHT22;10891;49.350;19.386;2022-11-20T02:53:55;-1.20;99.90
21459;DHT22;10891;49.350;19.386;2022-11-20T02:56:24;-1.10;99.90
21459;DHT22;10891;49.350;19.386;2022-11-20T02:58:51;-1.10;99.90
21459;DHT22;10891;49.350;19.386;2022-11-20T03:01:18;-1.10;99.90
21459;DHT22;10891;49.350;19.386;2022-11-20T03:03:45;-1.10;99.90
21459;DHT22;10891;49.350;19.386;2022-11-20T03:06:14;-0.90;99.90
21459;DHT22;10891;49.350;19.386;2022-11-20T03:08:41;-0.90;99.90
21459;DHT22;10891;49.350;19.386;2022-11-20T03:11:08;-0.90;99.90
21459;DHT22;10891;49.350;19.386;2022-11-20T03:13:36;-1.10;99.90
21459;DHT22;10891;49.350;19.386;2022-11-20T03:16:08;-1.30;99.90
21459;DHT22;10891;49.350;19.386;2022-11-20T03:18:35;-1.20;99.90
21459;DHT22;10891;49.350;19.386;2022-11-20T03:21:02;-1.20;99.90
21459;DHT22;10891;49.350;19.386;2022-11-20T03:23:30;-1.30;99.90
21459;DHT22;10891;49.350;19.386;2022-11-20T03:26:08;-1.40;99.90
21459;DHT22;10891;49.350;19.386;2022-11-20T03:28:37;-1.40;99.90
21459;DHT22;10891;49.350;19.386;2022-11-20T03:31:08;-1.50;99.90
21459;DHT22;10891;49.350;19.386;2022-11-20T03:33:35;-1.50;99.90
21459;DHT22;10891;49.350;19.386;2022-11-20T03:36:03;-1.60;99.90
21459;DHT22;10891;49.350;19.386;2022-11-20T03:38:30;-1.60;99.90
21459;DHT22;10891;49.350;19.386;2022-11-20T03:40:59;-1.50;99.90
21459;DHT22;10891;49.350;19.386;2022-11-20T03:43:27;-1.60;99.90
21459;DHT22;10891;49.350;19.386;2022-11-20T03:45:55;-1.40;99.90
21459;DHT22;10891;49.350;19.386;2022-11-20T03:48:22;-1.50;99.90
21459;DHT22;10891;49.350;19.386;2022-11-20T03:50:49;-1.30;99.90
21459;DHT22;10891;49.350;19.386;2022-11-20T03:53:16;-1.10;99.90
21459;DHT22;10891;49.350;19.386;2022-11-20T03:55:43;-1.00;99.90
21459;DHT22;10891;49.350;19.386;2022-11-20T03:58:10;-0.90;99.90
21459;DHT22;10891;49.350;19.386;2022-11-20T04:00:39;-0.90;99.90
21459;DHT22;10891;49.350;19.386;2022-11-20T04:03:07;-0.90;99.90
21459;DHT22;10891;49.350;19.386;2022-11-20T04:05:34;-1.00;99.90
21459;DHT22;10891;49.350;19.386;2022-11-20T04:08:01;-1.00;99.90
21459;DHT22;10891;49.350;19.386;2022-11-20T04:10:28;-1.20;99.90
21459;DHT22;10891;49.350;19.386;2022-11-20T04:12:54;-1.30;99.90
21459;DHT22;10891;49.350;19.386;2022-11-20T04:15:21;-1.10;99.90
21459;DHT22;10891;49.350;19.386;2022-11-20T04:17:48;-1.00;99.90
21459;DHT22;10891;49.350;19.386;2022-11-20T04:20:16;-0.90;99.90
21459;DHT22;10891;49.350;19.386;2022-11-20T04:22:43;-0.80;99.90
21459;DHT22;10891;49.350;19.386;2022-11-20T04:25:10;-0.70;99.90
21459;DHT22;10891;49.350;19.386;2022-11-20T04:27:37;-0.80;99.90
21459;DHT22;10891;49.350;19.386;2022-11-20T04:30:05;-0.70;99.90
21459;DHT22;10891;49.350;19.386;2022-11-20T04:32:32;-0.70;99.90
21459;DHT22;10891;49.350;19.386;2022-11-20T04:34:59;-0.50;99.90
21459;DHT22;10891;49.350;19.386;2022-11-20T04:37:28;-0.50;99.90
21459;DHT22;10891;49.350;19.386;2022-11-20T04:39:55;-0.40;99.90
21459;DHT22;10891;49.350;19.386;2022-11-20T04:42:22;-0.40;99.90
21459;DHT22;10891;49.350;19.386;2022-11-20T04:44:55;-0.30;99.90
21459;DHT22;10891;49.350;19.386;2022-11-20T04:47:22;-0.30;99.90
21459;DHT22;10891;49.350;19.386;2022-11-20T04:49:50;-0.30;99.90
21459;DHT22;10891;49.350;19.386;2022-11-20T04:52:17;-0.20;99.90
21459;DHT22;10891;49.350;19.386;2022-11-20T04:54:45;-0.30;99.90
21459;DHT22;10891;49.350;19.386;2022-11-20T04:57:13;-0.20;99.90
21459;DHT22;10891;49.350;19.386;2022-11-20T04:59:41;-0.20;99.90
21459;DHT22;10891;49.350;19.386;2022-11-20T05:02:08;-0.10;99.90
21459;DHT22;10891;49.350;19.386;2022-11-20T05:04:34;-0.20;99.90
21459;DHT22;10891;49.350;19.386;2022-11-20T05:07:01;-0.20;99.90
21459;DHT22;10891;49.350;19.386;2022-11-20T05:09:29;-0.30;99.90
21459;DHT22;10891;49.350;19.386;2022-11-20T05:11:57;-0.40;99.90
21459;DHT22;10891;49.350;19.386;2022-11-20T05:14:24;-0.70;99.90
21459;DHT22;10891;49.350;19.386;2022-11-20T05:16:51;-0.70;99.90
21459;DHT22;10891;49.350;19.386;2022-11-20T05:19:18;-0.60;99.90
21459;DHT22;10891;49.350;19.386;2022-11-20T05:21:44;-0.50;99.90
21459;DHT22;10891;49.350;19.386;2022-11-20T05:24:11;-0.40;99.90
21459;DHT22;10891;49.350;19.386;2022-11-20T05:26:38;-0.30;99.90
21459;DHT22;10891;49.350;19.386;2022-11-20T05:29:08;-0.30;99.90
21459;DHT22;10891;49.350;19.386;2022-11-20T05:31:35;-0.20;99.90
21459;DHT22;10891;49.350;19.386;2022-11-20T05:34:02;-0.20;99.90
21459;DHT22;10891;49.350;19.386;2022-11-20T05:36:30;-0.30;99.90
21459;DHT22;10891;49.350;19.386;2022-11-20T05:38:56;-0.30;99.90
21459;DHT22;10891;49.350;19.386;2022-11-20T05:41:24;-0.30;99.90
21459;DHT22;10891;49.350;19.386;2022-11-20T05:43:51;-0.30;99.90
21459;DHT22;10891;49.350;19.386;2022-11-20T05:46:20;-0.30;99.90
21459;DHT22;10891;49.350;19.386;2022-11-20T05:48:47;-0.30;99.90
21459;DHT22;10891;49.350;19.386;2022-11-20T05:51:17;-0.30;99.90
21459;DHT22;10891;49.350;19.386;2022-11-20T05:53:45;-0.20;99.90
21459;DHT22;10891;49.350;19.386;2022-11-20T05:56:13;-0.20;99.90
21459;DHT22;10891;49.350;19.386;2022-11-20T05:58:40;-0.10;99.90
21459;DHT22;10891;49.350;19.386;2022-11-20T06:01:08;0.00;99.90
21459;DHT22;10891;49.350;19.386;2022-11-20T06:03:37;-0.10;99.90
21459;DHT22;10891;49.350;19.386;2022-11-20T06:06:05;-0.20;99.90
21459;DHT22;10891;49.350;19.386;2022-11-20T06:08:32;-0.10;99.90
21459;DHT22;10891;49.350;19.386;2022-11-20T06:11:03;-0.10;99.90
21459;DHT22;10891;49.350;19.386;2022-11-20T06:13:31;0.00;99.90
21459;DHT22;10891;49.350;19.386;2022-11-20T06:15:58;0.10;99.90
21459;DHT22;10891;49.350;19.386;2022-11-20T06:18:26;0.10;99.90
21459;DHT22;10891;49.350;19.386;2022-11-20T06:21:01;0.20;99.90
21459;DHT22;10891;49.350;19.386;2022-11-20T06:23:29;0.30;99.90
21459;DHT22;10891;49.350;19.386;2022-11-20T06:25:57;0.30;99.90
21459;DHT22;10891;49.350;19.386;2022-11-20T06:28:24;0.40;99.90
21459;DHT22;10891;49.350;19.386;2022-11-20T06:30:51;0.40;99.90
21459;DHT22;10891;49.350;19.386;2022-11-20T06:33:18;0.50;99.90
21459;DHT22;10891;49.350;19.386;2022-11-20T06:35:45;0.50;99.90
21459;DHT22;10891;49.350;19.386;2022-11-20T06:38:13;0.50;99.90
21459;DHT22;10891;49.350;19.386;2022-11-20T06:40:41;0.50;99.90
21459;DHT22;10891;49.350;19.386;2022-11-20T06:43:08;0.50;99.90
21459;DHT22;10891;49.350;19.386;2022-11-20T06:45:35;0.50;99.90
21459;DHT22;10891;49.350;19.386;2022-11-20T06:48:03;0.60;99.90
21459;DHT22;10891;49.350;19.386;2022-11-20T06:50:30;0.60;99.90
21459;DHT22;10891;49.350;19.386;2022-11-20T06:53:00;0.60;99.90
21459;DHT22;10891;49.350;19.386;2022-11-20T06:55:31;0.50;99.90
21459;DHT22;10891;49.350;19.386;2022-11-20T06:57:58;0.40;99.90
21459;DHT22;10891;49.350;19.386;2022-11-20T07:00:25;0.30;99.90
21459;DHT22;10891;49.350;19.386;2022-11-20T07:02:52;0.30;99.90
21459;DHT22;10891;49.350;19.386;2022-11-20T07:05:19;0.30;99.90
21459;DHT22;10891;49.350;19.386;2022-11-20T07:07:46;0.30;99.90
21459;DHT22;10891;49.350;19.386;2022-11-20T07:10:13;0.30;99.90
21459;DHT22;10891;49.350;19.386;2022-11-20T07:12:41;0.40;99.90
21459;DHT22;10891;49.350;19.386;2022-11-20T07:15:09;0.40;99.90
21459;DHT22;10891;49.350;19.386;2022-11-20T07:17:36;0.50;99.90
21459;DHT22;10891;49.350;19.386;2022-11-20T07:20:03;0.60;99.90
21459;DHT22;10891;49.350;19.386;2022-11-20T07:22:30;0.70;99.90
21459;DHT22;10891;49.350;19.386;2022-11-20T07:24:57;0.70;99.90
21459;DHT22;10891;49.350;19.386;2022-11-20T07:27:24;0.70;99.90
21459;DHT22;10891;49.350;19.386;2022-11-20T07:29:52;0.70;99.90
21459;DHT22;10891;49.350;19.386;2022-11-20T07:32:19;0.80;99.90
21459;DHT22;10891;49.350;19.386;2022-11-20T07:34:46;0.90;99.90
21459;DHT22;10891;49.350;19.386;2022-11-20T07:37:13;1.00;99.90
21459;DHT22;10891;49.350;19.386;2022-11-20T07:39:41;1.00;99.90
21459;DHT22;10891;49.350;19.386;2022-11-20T07:42:09;1.00;99.90
21459;DHT22;10891;49.350;19.386;2022-11-20T07:44:38;0.90;99.90
21459;DHT22;10891;49.350;19.386;2022-11-20T08:18:37;1.50;99.90
21459;DHT22;10891;49.350;19.386;2022-11-20T08:21:05;1.80;99.90
21459;DHT22;10891;49.350;19.386;2022-11-20T08:23:32;2.00;99.90
21459;DHT22;10891;49.350;19.386;2022-11-20T08:25:59;2.20;99.90
21459;DHT22;10891;49.350;19.386;2022-11-20T08:28:25;2.40;99.90
21459;DHT22;10891;49.350;19.386;2022-11-20T08:30:58;2.50;99.90
21459;DHT22;10891;49.350;19.386;2022-11-20T08:33:25;2.60;99.90
21459;DHT22;10891;49.350;19.386;2022-11-20T08:35:53;2.80;99.90
21459;DHT22;10891;49.350;19.386;2022-11-20T08:38:24;3.10;99.90
21459;DHT22;10891;49.350;19.386;2022-11-20T09:01:28;3.30;99.90
21459;DHT22;10891;49.350;19.386;2022-11-20T09:10:39;3.10;99.90
21459;DHT22;10891;49.350;19.386;2022-11-20T09:16:46;3.00;99.90
21459;DHT22;10891;49.350;19.386;2022-11-20T09:22:39;3.10;99.90
21459;DHT22;10891;49.350;19.386;2022-11-20T09:28:53;3.70;99.90
21459;DHT22;10891;49.350;19.386;2022-11-20T11:06:42;5.50;99.90
21459;DHT22;10891;49.350;19.386;2022-11-20T11:09:39;5.60;99.90
21459;DHT22;10891;49.350;19.386;2022-11-20T11:19:04;5.60;99.90
21459;DHT22;10891;49.350;19.386;2022-11-20T11:21:52;5.60;99.90
21459;DHT22;10891;49.350;19.386;2022-11-20T11:24:54;5.70;99.90
21459;DHT22;10891;49.350;19.386;2022-11-20T11:28:00;5.60;99.90
21459;DHT22;10891;49.350;19.386;2022-11-20T11:37:17;5.50;99.90
21459;DHT22;10891;49.350;19.386;2022-11-20T11:40:10;5.50;99.90
21459;DHT22;10891;49.350;19.386;2022-11-20T11:43:17;5.60;99.90
21459;DHT22;10891;49.350;19.386;2022-11-20T11:49:21;5.00;99.90
21459;DHT22;10891;49.350;19.386;2022-11-20T12:26:01;3.50;99.90
21459;DHT22;10891;49.350;19.386;2022-11-20T12:56:27;3.20;99.90
21459;DHT22;10891;49.350;19.386;2022-11-20T12:59:32;3.30;99.90
21459;DHT22;10891;49.350;19.386;2022-11-20T13:05:41;3.20;99.90
21459;DHT22;10891;49.350;19.386;2022-11-20T13:08:39;3.20;99.90
21459;DHT22;10891;49.350;19.386;2022-11-20T13:11:43;3.20;99.90
21459;DHT22;10891;49.350;19.386;2022-11-20T14:49:13;1.60;99.90
21459;DHT22;10891;49.350;19.386;2022-11-20T14:52:12;1.60;99.90
21459;DHT22;10891;49.350;19.386;2022-11-20T14:55:13;1.60;99.90
21459;DHT22;10891;49.350;19.386;2022-11-20T15:07:50;1.70;99.90
21459;DHT22;10891;49.350;19.386;2022-11-20T15:40:52;1.90;99.90
21459;DHT22;10891;49.350;19.386;2022-11-20T17:09:57;2.00;99.90
21459;DHT22;10891;49.350;19.386;2022-11-20T17:39:55;1.90;99.90
21459;DHT22;10891;49.350;19.386;2022-11-20T17:46:00;1.90;99.90
21459;DHT22;10891;49.350;19.386;2022-11-20T17:52:10;2.10;99.90
21459;DHT22;10891;49.350;19.386;2022-11-20T19:08:24;2.10;99.90
21459;DHT22;10891;49.350;19.386;2022-11-20T20:15:44;1.80;99.90
21459;DHT22;10891;49.350;19.386;2022-11-20T20:18:11;1.70;99.90
21459;DHT22;10891;49.350;19.386;2022-11-20T20:20:38;1.50;99.90
21459;DHT22;10891;49.350;19.386;2022-11-20T20:23:05;1.50;99.90
21459;DHT22;10891;49.350;19.386;2022-11-20T20:25:34;1.40;99.90
21459;DHT22;10891;49.350;19.386;2022-11-20T20:28:02;1.30;99.90
21459;DHT22;10891;49.350;19.386;2022-11-20T20:30:30;1.30;99.90
21459;DHT22;10891;49.350;19.386;2022-11-20T20:32:59;1.30;99.90
21459;DHT22;10891;49.350;19.386;2022-11-20T20:35:26;1.40;99.90
21459;DHT22;10891;49.350;19.386;2022-11-20T20:37:52;1.40;99.90
21459;DHT22;10891;49.350;19.386;2022-11-20T20:40:19;1.50;99.90
21459;DHT22;10891;49.350;19.386;2022-11-20T20:42:46;1.40;99.90
21459;DHT22;10891;49.350;19.386;2022-11-20T20:45:13;1.50;99.90
21459;DHT22;10891;49.350;19.386;2022-11-20T20:47:40;1.50;99.90
21459;DHT22;10891;49.350;19.386;2022-11-20T20:50:10;1.60;99.90
21459;DHT22;10891;49.350;19.386;2022-11-20T20:52:37;1.50;99.90
21459;DHT22;10891;49.350;19.386;2022-11-20T20:55:05;1.50;99.90
21459;DHT22;10891;49.350;19.386;2022-11-20T20:57:32;1.60;99.90
21459;DHT22;10891;49.350;19.386;2022-11-20T20:59:59;1.70;99.90
21459;DHT22;10891;49.350;19.386;2022-11-20T21:02:26;1.70;99.90
21459;DHT22;10891;49.350;19.386;2022-11-20T21:04:53;1.80;99.90
21459;DHT22;10891;49.350;19.386;2022-11-20T21:07:21;1.80;99.90
21459;DHT22;10891;49.350;19.386;2022-11-20T21:09:48;1.80;99.90
21459;DHT22;10891;49.350;19.386;2022-11-20T21:12:15;1.90;99.90
21459;DHT22;10891;49.350;19.386;2022-11-20T21:14:42;2.00;99.90
21459;DHT22;10891;49.350;19.386;2022-11-20T21:17:08;2.10;99.90
21459;DHT22;10891;49.350;19.386;2022-11-20T21:19:35;2.10;99.90
21459;DHT22;10891;49.350;19.386;2022-11-20T21:22:02;2.20;99.90
21459;DHT22;10891;49.350;19.386;2022-11-20T21:24:31;2.20;99.90
21459;DHT22;10891;49.350;19.386;2022-11-20T21:26:59;2.10;99.90
21459;DHT22;10891;49.350;19.386;2022-11-20T21:29:27;2.10;99.90
21459;DHT22;10891;49.350;19.386;2022-11-20T21:31:54;2.10;99.90
21459;DHT22;10891;49.350;19.386;2022-11-20T21:34:22;2.20;99.90
21459;DHT22;10891;49.350;19.386;2022-11-20T21:36:50;2.30;99.90
21459;DHT22;10891;49.350;19.386;2022-11-20T21:39:17;2.40;99.90
21459;DHT22;10891;49.350;19.386;2022-11-20T21:41:46;2.50;99.90
21459;DHT22;10891;49.350;19.386;2022-11-20T21:44:13;2.50;99.90
21459;DHT22;10891;49.350;19.386;2022-11-20T21:46:43;2.60;99.90
21459;DHT22;10891;49.350;19.386;2022-11-20T21:49:10;2.60;99.90
21459;DHT22;10891;49.350;19.386;2022-11-20T21:51:39;2.60;99.90
21459;DHT22;10891;49.350;19.386;2022-11-20T21:54:06;2.60;99.90
21459;DHT22;10891;49.350;19.386;2022-11-20T21:56:33;2.60;99.90
21459;DHT22;10891;49.350;19.386;2022-11-20T21:59:01;2.60;99.90
21459;DHT22;10891;49.350;19.386;2022-11-20T22:01:29;2.50;99.90
21459;DHT22;10891;49.350;19.386;2022-11-20T22:03:58;2.50;99.90
21459;DHT22;10891;49.350;19.386;2022-11-20T22:06:29;2.40;99.90
21459;DHT22;10891;49.350;19.386;2022-11-20T22:08:56;2.30;99.90
21459;DHT22;10891;49.350;19.386;2022-11-20T22:11:23;2.20;99.90
21459;DHT22;10891;49.350;19.386;2022-11-20T22:13:50;2.20;99.90
21459;DHT22;10891;49.350;19.386;2022-11-20T22:16:37;2.10;99.90
21459;DHT22;10891;49.350;19.386;2022-11-20T22:19:04;2.00;99.90
21459;DHT22;10891;49.350;19.386;2022-11-20T22:21:32;2.00;99.90
21459;DHT22;10891;49.350;19.386;2022-11-20T22:23:59;2.00;99.90
21459;DHT22;10891;49.350;19.386;2022-11-20T22:26:28;2.00;99.90
21459;DHT22;10891;49.350;19.386;2022-11-20T22:28:56;2.00;99.90
21459;DHT22;10891;49.350;19.386;2022-11-20T22:31:26;2.00;99.90
21459;DHT22;10891;49.350;19.386;2022-11-20T22:33:55;2.00;99.90
21459;DHT22;10891;49.350;19.386;2022-11-20T22:36:24;2.00;99.90
21459;DHT22;10891;49.350;19.386;2022-11-20T22:38:53;2.00;99.90
21459;DHT22;10891;49.350;19.386;2022-11-20T22:41:21;2.00;99.90
21459;DHT22;10891;49.350;19.386;2022-11-20T22:43:52;2.00;99.90
21459;DHT22;10891;49.350;19.386;2022-11-20T22:46:20;2.00;99.90
21459;DHT22;10891;49.350;19.386;2022-11-20T22:48:49;2.00;99.90
21459;DHT22;10891;49.350;19.386;2022-11-20T22:51:18;2.10;99.90
21459;DHT22;10891;49.350;19.386;2022-11-20T22:53:46;2.10;99.90
21459;DHT22;10891;49.350;19.386;2022-11-20T22:56:14;2.10;99.90
21459;DHT22;10891;49.350;19.386;2022-11-20T22:58:43;2.10;99.90
21459;DHT22;10891;49.350;19.386;2022-11-20T23:01:11;2.00;99.90
21459;DHT22;10891;49.350;19.386;2022-11-20T23:03:40;1.90;99.90
21459;DHT22;10891;49.350;19.386;2022-11-20T23:06:07;1.70;99.90
21459;DHT22;10891;49.350;19.386;2022-11-20T23:08:36;1.50;99.90
21459;DHT22;10891;49.350;19.386;2022-11-20T23:11:05;1.30;99.90
21459;DHT22;10891;49.350;19.386;2022-11-20T23:13:33;1.20;99.90
21459;DHT22;10891;49.350;19.386;2022-11-20T23:16:02;1.10;99.90
21459;DHT22;10891;49.350;19.386;2022-11-20T23:18:29;0.90;99.90
21459;DHT22;10891;49.350;19.386;2022-11-20T23:20:56;0.90;99.90
21459;DHT22;10891;49.350;19.386;2022-11-20T23:23:28;0.90;99.90
21459;DHT22;10891;49.350;19.386;2022-11-20T23:25:59;0.90;99.90
21459;DHT22;10891;49.350;19.386;2022-11-20T23:28:26;0.90;99.90
21459;DHT22;10891;49.350;19.386;2022-11-20T23:30:52;0.90;99.90
21459;DHT22;10891;49.350;19.386;2022-11-20T23:33:19;0.90;99.90
21459;DHT22;10891;49.350;19.386;2022-11-20T23:35:46;1.00;99.90
21459;DHT22;10891;49.350;19.386;2022-11-20T23:38:13;1.00;99.90
21459;DHT22;10891;49.350;19.386;2022-11-20T23:40:40;1.10;99.90
21459;DHT22;10891;49.350;19.386;2022-11-20T23:43:08;1.10;99.90
21459;DHT22;10891;49.350;19.386;2022-11-20T23:45:41;1.10;99.90
21459;DHT22;10891;49.350;19.386;2022-11-20T23:48:08;1.10;99.90
21459;DHT22;10891;49.350;19.386;2022-11-20T23:50:35;1.00;99.90
21459;DHT22;10891;49.350;19.386;2022-11-20T23:53:02;0.90;99.90
21459;DHT22;10891;49.350;19.386;2022-11-20T23:55:29;0.80;99.90
21459;DHT22;10891;49.350;19.386;2022-11-20T23:57:56;0.70;99.90
